SKBO

El Dorado International Airport

Bogota, Colombia
TAF SKBO 210500Z 2106/2206 VRB02KT 9999 SCT020 SCT080 PROB40 2108/2111 8000 DZ SCT015 BKN070 BECMG 2115/2117 34012KT TEMPO 2120/2123 8000 DZ BKN017TCU BECMG 2201/2203 VRB02KT BKN015 TX19/2118Z TN09/2111Z
Issued Valid From Valid To
Jun-21 @ 05:00 UTC
(5 hours ago)
Jun-21 @ 06:00 UTC
(4 hours ago)
Jun-22 @ 06:00 UTC
(in 20 hours)
Jun-21 @ 06:00 to Jun-21 @ 15:00
TAF SKBO 210500Z 2106/2206 VRB02KT 9999 SCT020 SCT080
Wind Visibility Clouds
Variable at 2 knots 10,000+ meters
  • Scattered at 2,000' AGL
  • Scattered at 8,000' AGL
Probable  (Probability 40%) Jun-21 @ 08:00 to Jun-21 @ 11:00
PROB40 2108/2111 8000 DZ SCT015 BKN070
Visibility Clouds Conditions
7,998 meters
  • Scattered at 1,500' AGL
  • Broken at 7,000' AGL
  • Drizzle
Becoming Jun-21 @ 15:00 to Jun-22 @ 01:00
BECMG 2115/2117 34012KT
Wind Visibility Clouds
340° at 12 knots 10,000+ meters
  • Scattered at 2,000' AGL
  • Scattered at 8,000' AGL
Temporary Jun-21 @ 20:00 to Jun-21 @ 23:00
TEMPO 2120/2123 8000 DZ BKN017TCU
Visibility Clouds Conditions
7,998 meters
  • Broken at 1,700' AGL
  • Drizzle
Becoming Jun-22 @ 01:00 to Jun-22 @ 06:00
BECMG 2201/2203 VRB02KT BKN015 TX19/2118Z TN09/2111Z
Wind Visibility Clouds
Variable at 2 knots 10,000+ meters
  • Broken at 1,500' AGL
TAF SKBO 210500Z 2106/2206 VRB02KT 9999 SCT020 SCT080 PROB40 2108/2111 8000 DZ SCT015 BKN070 BECMG 2115/2117 34012KT TEMPO 2120/2123 8000 DZ BKN017TCU BECMG 2201/2203 VRB02KT BKN015 TX19/2118Z TN09/2111Z
Issued Jun-21 @ 05:00 UTC
(5 hours ago)
Valid From Jun-21 @ 06:00 UTC
(4 hours ago)
Valid To Jun-22 @ 06:00 UTC
(in 20 hours)
Jun-21 @ 06:00 - Jun-21 @ 15:00
Wind Visibility
Variable at 2 knots 10,000+ meters
Clouds
  • Scattered at 2,000' AGL
  • Scattered at 8,000' AGL
Probability 40% Probable Jun-21 @ 08:00 - Jun-21 @ 11:00
Clouds
  • Scattered at 1,500' AGL
  • Broken at 7,000' AGL
Conditions
  • Drizzle
Becoming Jun-21 @ 15:00 - Jun-22 @ 01:00
Wind Visibility
340° at 12 knots 10,000+ meters
Clouds
  • Scattered at 2,000' AGL
  • Scattered at 8,000' AGL
Temporary Jun-21 @ 20:00 - Jun-21 @ 23:00
Clouds
  • Broken at 1,700' AGL
Conditions
  • Drizzle
Becoming Jun-22 @ 01:00 - Jun-22 @ 06:00
Wind Visibility
Variable at 2 knots 10,000+ meters
Clouds
  • Broken at 1,500' AGL